createdAt,value
2017-10-05T01:36:36.505Z,12.74
2017-10-05T01:36:37.079Z,12.70
2017-10-05T01:36:37.684Z,12.70
2017-10-05T01:36:38.279Z,12.74
2017-10-05T01:36:38.878Z,12.70
2017-10-05T01:36:39.478Z,12.67
2017-10-05T01:36:40.078Z,12.69
2017-10-05T01:36:40.677Z,12.66
2017-10-05T01:37:35.186Z,12.67
2017-10-05T01:37:35.755Z,12.70
2017-10-05T01:37:36.355Z,12.70
2017-10-05T01:37:36.954Z,12.74
2017-10-05T01:37:37.555Z,12.69
2017-10-05T01:37:38.156Z,12.70
2017-10-05T01:37:38.754Z,12.67
2017-10-05T01:37:39.355Z,12.67
2017-10-05T01:38:32.837Z,12.69
2017-10-05T01:38:33.408Z,12.69
2017-10-05T01:38:34.007Z,12.74
2017-10-05T01:38:34.608Z,12.70
2017-10-05T01:38:35.207Z,12.70
2017-10-05T01:38:35.809Z,12.70
2017-10-05T01:38:36.407Z,12.67
2017-10-05T01:38:37.008Z,12.70
2017-10-05T01:39:30.489Z,12.62
2017-10-05T01:39:31.059Z,12.70
2017-10-05T01:39:31.660Z,12.67
2017-10-05T01:39:32.259Z,12.67
2017-10-05T01:39:32.860Z,12.70
2017-10-05T01:39:33.459Z,12.69
2017-10-05T01:39:34.059Z,12.66
2017-10-05T01:39:34.660Z,12.70
2017-10-05T01:40:29.163Z,12.70
2017-10-05T01:40:29.737Z,12.70
2017-10-05T01:40:30.335Z,12.74
2017-10-05T01:40:30.935Z,12.71
2017-10-05T01:40:31.534Z,12.67
2017-10-05T01:40:32.137Z,12.70
2017-10-05T01:40:32.735Z,12.70
2017-10-05T01:40:33.335Z,12.69
2017-10-05T01:41:27.839Z,12.67
2017-10-05T01:41:28.411Z,12.69
2017-10-05T01:41:29.011Z,12.67
2017-10-05T01:41:29.612Z,12.69
2017-10-05T01:41:30.211Z,12.67
2017-10-05T01:41:30.810Z,12.67
2017-10-05T01:41:31.410Z,12.75
2017-10-05T01:41:32.012Z,12.67
2017-10-05T01:42:25.492Z,12.69
2017-10-05T01:42:26.067Z,12.69
2017-10-05T01:42:26.665Z,12.70
2017-10-05T01:42:27.265Z,12.70
2017-10-05T01:42:27.864Z,12.71
2017-10-05T01:42:28.464Z,12.66
2017-10-05T01:42:29.062Z,12.70
2017-10-05T01:42:29.662Z,12.67
2017-10-05T01:43:24.167Z,12.70
2017-10-05T01:43:24.738Z,12.63
2017-10-05T01:43:25.339Z,12.70
2017-10-05T01:43:25.941Z,12.69
2017-10-05T01:43:26.539Z,12.75
2017-10-05T01:43:27.139Z,12.75
2017-10-05T01:43:27.739Z,12.74
2017-10-05T01:43:28.341Z,12.69
2017-10-05T01:44:22.843Z,12.67
2017-10-05T01:44:23.416Z,12.74
2017-10-05T01:44:24.015Z,12.75
2017-10-05T01:44:24.620Z,12.70
2017-10-05T01:44:25.214Z,12.69
2017-10-05T01:44:25.814Z,12.74
2017-10-05T01:44:26.415Z,12.69
2017-10-05T01:44:27.014Z,12.70
2017-10-05T01:45:21.571Z,12.71
2017-10-05T01:45:22.159Z,12.77
2017-10-05T01:45:22.696Z,12.75
2017-10-05T01:45:23.341Z,12.71
2017-10-05T01:45:23.902Z,12.74
2017-10-05T01:45:24.541Z,12.75
2017-10-05T01:45:25.096Z,12.70
2017-10-05T01:45:25.746Z,12.78
2017-10-05T01:46:20.704Z,12.70
2017-10-05T01:46:21.281Z,12.74
2017-10-05T01:46:21.879Z,12.74
2017-10-05T01:46:22.478Z,12.71
2017-10-05T01:46:23.078Z,12.78
2017-10-05T01:46:23.678Z,12.75
2017-10-05T01:46:24.279Z,12.70
2017-10-05T01:47:17.848Z,12.82
2017-10-05T01:47:18.421Z,12.77
2017-10-05T01:47:19.020Z,12.82
2017-10-05T01:47:19.619Z,12.71
2017-10-05T01:47:20.221Z,12.79
2017-10-05T01:47:20.825Z,12.79
2017-10-05T01:47:21.420Z,12.75
2017-10-05T01:47:22.019Z,12.81
2017-10-05T01:48:15.498Z,12.77
2017-10-05T01:48:16.072Z,12.81
2017-10-05T01:48:16.669Z,12.85
2017-10-05T01:48:17.270Z,12.78
2017-10-05T01:48:17.871Z,12.77
2017-10-05T01:48:18.470Z,12.78
2017-10-05T01:48:19.070Z,12.88
2017-10-05T01:48:19.671Z,12.70
2017-10-05T01:49:13.149Z,12.79
2017-10-05T01:49:13.725Z,12.70
2017-10-05T01:49:14.324Z,12.74
2017-10-05T01:49:14.924Z,12.74
2017-10-05T01:49:15.523Z,12.74
2017-10-05T01:49:16.122Z,12.78
2017-10-05T01:49:16.725Z,12.74
2017-10-05T01:49:17.323Z,12.74
2017-10-05T01:50:10.805Z,12.81
2017-10-05T01:50:11.376Z,12.74
2017-10-05T01:50:11.974Z,12.74
2017-10-05T01:50:12.575Z,12.69
2017-10-05T01:50:13.176Z,12.77
2017-10-05T01:50:13.776Z,12.84
2017-10-05T01:50:14.374Z,12.84
2017-10-05T01:50:14.973Z,12.75
2017-10-05T01:51:08.452Z,12.81
2017-10-05T01:51:09.026Z,12.69
2017-10-05T01:51:09.627Z,12.82
2017-10-05T01:51:10.227Z,12.70
2017-10-05T01:51:10.827Z,12.78
2017-10-05T01:51:11.426Z,12.74
2017-10-05T01:51:12.025Z,12.78
2017-10-05T01:51:12.626Z,12.78
2017-10-05T01:52:07.129Z,12.77
2017-10-05T01:52:07.702Z,12.74
2017-10-05T01:52:08.301Z,12.78
2017-10-05T01:52:08.902Z,12.74
2017-10-05T01:52:09.501Z,12.78
2017-10-05T01:52:10.104Z,12.81
2017-10-05T01:52:10.702Z,12.79
2017-10-05T01:52:11.302Z,12.78
2017-10-05T01:53:05.805Z,12.81
2017-10-05T01:53:06.378Z,12.77
2017-10-05T01:53:06.977Z,12.81
2017-10-05T01:53:07.577Z,12.81
2017-10-05T01:53:08.181Z,12.78
2017-10-05T01:53:08.778Z,12.74
2017-10-05T01:53:09.378Z,12.77
2017-10-05T01:53:09.977Z,12.77
2017-10-05T01:54:03.455Z,12.71
2017-10-05T01:54:04.030Z,12.74
2017-10-05T01:54:04.630Z,12.75
2017-10-05T01:54:05.230Z,12.69
2017-10-05T01:54:05.831Z,12.78
2017-10-05T01:54:06.428Z,12.74
2017-10-05T01:54:07.030Z,12.78
2017-10-05T01:54:07.629Z,12.77
2017-10-05T01:55:01.107Z,12.79
2017-10-05T01:55:01.682Z,12.74
2017-10-05T01:55:02.282Z,12.71
2017-10-05T01:55:02.886Z,12.78
2017-10-05T01:55:03.481Z,12.75
2017-10-05T01:55:04.083Z,12.74
2017-10-05T01:55:04.685Z,12.81
2017-10-05T01:55:05.281Z,12.71
2017-10-05T01:55:58.763Z,12.74
2017-10-05T01:55:59.336Z,12.69
2017-10-05T01:55:59.934Z,12.78
2017-10-05T01:56:00.533Z,12.82
2017-10-05T01:56:01.132Z,12.77
2017-10-05T01:56:01.733Z,12.78
2017-10-05T01:56:02.336Z,12.77
2017-10-05T01:56:02.930Z,12.70
2017-10-05T01:56:56.410Z,12.78
2017-10-05T01:56:56.992Z,12.82
2017-10-05T01:56:57.584Z,12.74
2017-10-05T01:56:58.191Z,12.81
2017-10-05T01:56:58.783Z,12.78
2017-10-05T01:56:59.383Z,12.75
2017-10-05T01:56:59.982Z,12.89
2017-10-05T01:57:00.582Z,12.74
2017-10-05T01:57:55.087Z,12.78
2017-10-05T01:57:55.660Z,12.85
2017-10-05T01:57:56.260Z,12.78
2017-10-05T01:57:56.860Z,12.77
2017-10-05T01:57:57.459Z,12.88
2017-10-05T01:57:58.059Z,12.77
2017-10-05T01:57:58.662Z,12.81
2017-10-05T01:57:59.260Z,12.82
2017-10-05T01:58:52.737Z,12.82
2017-10-05T01:58:53.313Z,12.77
2017-10-05T01:58:53.913Z,12.77
2017-10-05T01:58:54.512Z,12.85
2017-10-05T01:58:55.112Z,12.85
2017-10-05T01:58:55.714Z,12.74
2017-10-05T01:58:56.312Z,12.84
2017-10-05T01:58:56.911Z,12.77
2017-10-05T01:59:51.415Z,12.75
2017-10-05T01:59:51.988Z,12.77
2017-10-05T01:59:52.587Z,12.74
2017-10-05T01:59:53.186Z,12.71
2017-10-05T01:59:53.787Z,12.78
2017-10-05T01:59:54.386Z,12.81
2017-10-05T01:59:54.992Z,12.78
2017-10-05T01:59:55.587Z,12.82
2017-10-05T02:00:50.090Z,12.78
2017-10-05T02:00:50.663Z,12.79
2017-10-05T02:00:51.263Z,12.78
2017-10-05T02:00:51.863Z,12.75
2017-10-05T02:00:52.462Z,12.74
2017-10-05T02:00:53.063Z,12.74
2017-10-05T02:00:53.664Z,12.75
2017-10-05T02:00:54.262Z,12.77
2017-10-05T02:01:47.741Z,12.84
2017-10-05T02:01:48.315Z,12.81
2017-10-05T02:01:48.915Z,12.81
2017-10-05T02:01:49.516Z,12.78
2017-10-05T02:01:50.115Z,12.81
2017-10-05T02:01:50.715Z,12.77
2017-10-05T02:01:51.317Z,12.89
2017-10-05T02:01:51.918Z,12.78
2017-10-05T02:02:46.419Z,12.77
2017-10-05T02:02:46.990Z,12.74
2017-10-05T02:02:47.590Z,12.74
2017-10-05T02:02:48.190Z,12.89
2017-10-05T02:02:48.789Z,12.78
2017-10-05T02:02:49.389Z,12.79
2017-10-05T02:02:49.990Z,12.84
2017-10-05T02:02:50.590Z,12.75
2017-10-05T02:03:45.093Z,12.78
2017-10-05T02:03:45.668Z,12.75
2017-10-05T02:03:46.267Z,12.78
2017-10-05T02:03:46.871Z,12.75
2017-10-05T02:03:47.466Z,12.81
2017-10-05T02:03:48.066Z,12.74
2017-10-05T02:03:48.667Z,12.78
2017-10-05T02:03:49.266Z,12.71
2017-10-05T02:04:42.744Z,12.78
2017-10-05T02:04:43.318Z,12.74
2017-10-05T02:04:43.918Z,12.81
2017-10-05T02:04:44.517Z,12.77
2017-10-05T02:04:45.121Z,12.74
2017-10-05T02:04:45.717Z,12.81
2017-10-05T02:04:46.317Z,12.74
2017-10-05T02:04:46.917Z,12.84
2017-10-05T02:05:41.424Z,12.77
2017-10-05T02:05:41.994Z,12.74
2017-10-05T02:05:42.592Z,12.89
2017-10-05T02:05:43.195Z,12.82
2017-10-05T02:05:43.792Z,12.77
2017-10-05T02:05:44.392Z,12.82
2017-10-05T02:05:44.992Z,12.87
2017-10-05T02:05:45.592Z,12.85
2017-10-05T02:06:39.582Z,12.81
2017-10-05T02:06:40.161Z,12.92
2017-10-05T02:06:40.757Z,12.84
2017-10-05T02:06:41.356Z,12.81
2017-10-05T02:06:41.961Z,12.89
2017-10-05T02:06:42.557Z,12.77
2017-10-05T02:06:43.157Z,12.87
2017-10-05T02:07:36.723Z,12.85
2017-10-05T02:07:37.298Z,12.85
2017-10-05T02:07:37.897Z,12.88
2017-10-05T02:07:38.497Z,12.87
2017-10-05T02:07:39.098Z,12.88
2017-10-05T02:07:39.696Z,12.85
2017-10-05T02:07:40.297Z,12.77
2017-10-05T02:07:40.897Z,12.81
2017-10-05T02:08:35.400Z,12.79
2017-10-05T02:08:35.973Z,12.85
2017-10-05T02:08:36.573Z,12.77
2017-10-05T02:08:37.173Z,12.88
2017-10-05T02:08:37.774Z,12.92
2017-10-05T02:08:38.374Z,12.71
2017-10-05T02:08:38.973Z,12.77
2017-10-05T02:08:39.572Z,12.81
2017-10-05T02:09:33.050Z,12.78
2017-10-05T02:09:33.625Z,12.82
2017-10-05T02:09:34.225Z,12.77
2017-10-05T02:09:34.824Z,12.82
2017-10-05T02:09:35.428Z,12.74
2017-10-05T02:09:36.023Z,12.71
2017-10-05T02:09:36.624Z,12.74
2017-10-05T02:09:37.226Z,12.87
2017-10-05T02:10:31.727Z,12.79
2017-10-05T02:10:32.299Z,12.89
2017-10-05T02:10:32.900Z,12.79
2017-10-05T02:10:33.500Z,12.78
2017-10-05T02:10:34.100Z,12.88
2017-10-05T02:10:34.699Z,12.74
2017-10-05T02:10:35.299Z,12.77
2017-10-05T02:10:35.902Z,12.71
2017-10-05T02:11:29.378Z,12.78
2017-10-05T02:11:29.952Z,12.74
2017-10-05T02:11:30.555Z,12.77
2017-10-05T02:11:31.151Z,12.74
2017-10-05T02:11:31.751Z,12.77
2017-10-05T02:11:32.351Z,12.84
2017-10-05T02:11:32.951Z,12.75
2017-10-05T02:11:33.551Z,12.85
2017-10-05T02:12:28.053Z,12.84
2017-10-05T02:12:28.628Z,12.87
2017-10-05T02:12:29.228Z,12.84
2017-10-05T02:12:29.826Z,12.88
2017-10-05T02:12:30.428Z,12.78
2017-10-05T02:12:31.025Z,12.88
2017-10-05T02:12:31.626Z,12.87
2017-10-05T02:12:32.225Z,12.88
2017-10-05T02:13:26.728Z,12.89
2017-10-05T02:13:27.304Z,12.92
2017-10-05T02:13:27.906Z,12.87
2017-10-05T02:13:28.502Z,12.89
2017-10-05T02:13:29.101Z,12.89
2017-10-05T02:13:29.703Z,12.88
2017-10-05T02:13:30.302Z,12.92
2017-10-05T02:13:30.902Z,12.87
2017-10-05T02:14:25.403Z,12.78
2017-10-05T02:14:25.982Z,12.81
2017-10-05T02:14:26.579Z,12.79
2017-10-05T02:14:27.178Z,12.88
2017-10-05T02:14:27.778Z,12.89
2017-10-05T02:14:28.377Z,12.85
2017-10-05T02:14:28.976Z,12.85
2017-10-05T02:14:29.577Z,12.87
2017-10-05T02:15:24.080Z,12.82
2017-10-05T02:15:24.654Z,12.89
2017-10-05T02:15:25.254Z,12.87
2017-10-05T02:15:25.854Z,12.88
2017-10-05T02:15:26.452Z,12.89
2017-10-05T02:15:27.053Z,12.81
2017-10-05T02:15:27.653Z,12.84
2017-10-05T02:15:28.253Z,12.89
2017-10-05T02:16:22.756Z,12.85
2017-10-05T02:16:23.330Z,12.84
2017-10-05T02:16:23.930Z,12.84
2017-10-05T02:16:24.529Z,12.84
2017-10-05T02:16:25.129Z,12.87
2017-10-05T02:16:25.729Z,12.87
2017-10-05T02:16:26.339Z,12.87
2017-10-05T02:16:26.929Z,12.88
2017-10-05T02:17:21.439Z,12.85
2017-10-05T02:17:22.004Z,12.84
2017-10-05T02:17:22.608Z,12.77
2017-10-05T02:17:23.204Z,12.85
2017-10-05T02:17:23.813Z,12.85
2017-10-05T02:17:24.404Z,12.79
2017-10-05T02:17:25.004Z,12.84
2017-10-05T02:17:25.605Z,12.82
2017-10-05T02:18:19.083Z,12.77
2017-10-05T02:18:19.660Z,12.69
2017-10-05T02:18:20.258Z,12.75
2017-10-05T02:18:20.856Z,12.71
2017-10-05T02:18:21.457Z,12.77
2017-10-05T02:18:22.057Z,12.82
2017-10-05T02:18:22.657Z,12.77
2017-10-05T02:18:23.258Z,12.71
2017-10-05T02:19:16.738Z,12.77
2017-10-05T02:19:17.312Z,12.78
2017-10-05T02:19:17.909Z,12.87
2017-10-05T02:19:18.509Z,12.75
2017-10-05T02:19:19.110Z,12.77
2017-10-05T02:19:19.710Z,12.77
2017-10-05T02:19:20.309Z,12.84
2017-10-05T02:19:20.911Z,12.77
2017-10-05T02:20:15.414Z,12.87
2017-10-05T02:20:15.984Z,12.74
2017-10-05T02:20:16.584Z,12.88
2017-10-05T02:20:17.184Z,12.85
2017-10-05T02:20:17.785Z,12.89
2017-10-05T02:20:18.384Z,12.75
2017-10-05T02:20:18.984Z,12.78
2017-10-05T02:20:19.583Z,12.88
2017-10-05T02:21:13.062Z,12.87
2017-10-05T02:21:13.637Z,12.88
2017-10-05T02:21:14.237Z,12.89
2017-10-05T02:21:14.837Z,12.84
2017-10-05T02:21:15.438Z,12.85
2017-10-05T02:21:16.038Z,12.92
2017-10-05T02:21:16.636Z,12.92
2017-10-05T02:21:17.235Z,12.78
2017-10-05T02:22:11.739Z,12.87
2017-10-05T02:22:12.311Z,12.88
2017-10-05T02:22:12.911Z,12.84
2017-10-05T02:22:13.512Z,12.82
2017-10-05T02:22:14.110Z,12.88
2017-10-05T02:22:14.711Z,12.84
2017-10-05T02:22:15.311Z,12.87
2017-10-05T02:22:15.911Z,12.84
2017-10-05T02:23:09.391Z,12.79
2017-10-05T02:23:09.964Z,12.84
2017-10-05T02:23:10.565Z,12.89
2017-10-05T02:23:11.164Z,12.82
2017-10-05T02:23:11.765Z,12.87
2017-10-05T02:23:12.365Z,12.88
2017-10-05T02:23:12.964Z,12.87
2017-10-05T02:23:13.563Z,12.93
2017-10-05T02:24:57.217Z,12.89
2017-10-05T02:24:57.791Z,12.85
2017-10-05T02:24:58.390Z,12.85
2017-10-05T02:24:58.991Z,12.85
2017-10-05T02:24:59.590Z,12.87
2017-10-05T02:25:00.190Z,12.93
2017-10-05T02:25:00.791Z,12.87
2017-10-05T02:25:01.390Z,12.92
2017-10-05T02:25:55.893Z,12.85
2017-10-05T02:25:56.468Z,12.85
2017-10-05T02:25:57.067Z,12.84
2017-10-05T02:25:57.667Z,12.89
2017-10-05T02:25:58.268Z,12.96
2017-10-05T02:25:58.868Z,12.85
2017-10-05T02:25:59.467Z,12.89
2017-10-05T02:26:00.066Z,12.95
2017-10-05T02:26:53.544Z,12.84
2017-10-05T02:26:54.119Z,12.85
2017-10-05T02:26:54.718Z,12.84
2017-10-05T02:26:55.324Z,12.87
2017-10-05T02:26:55.919Z,12.87
2017-10-05T02:26:56.520Z,12.87
2017-10-05T02:26:57.117Z,12.87
2017-10-05T02:26:57.720Z,12.85
2017-10-05T02:27:52.221Z,12.87
2017-10-05T02:27:52.796Z,12.89
2017-10-05T02:27:53.393Z,12.88
2017-10-05T02:27:53.992Z,12.84
2017-10-05T02:27:54.594Z,13.00
2017-10-05T02:27:55.193Z,12.85
2017-10-05T02:27:55.793Z,12.93
2017-10-05T02:27:56.394Z,12.85
2017-10-05T02:28:49.872Z,12.84
2017-10-05T02:28:50.446Z,12.88
2017-10-05T02:28:51.047Z,12.84
2017-10-05T02:28:51.646Z,12.82
2017-10-05T02:28:52.247Z,12.84
2017-10-05T02:28:52.847Z,12.84
2017-10-05T02:28:53.447Z,12.84
2017-10-05T02:28:54.046Z,12.82
2017-10-05T02:29:48.549Z,12.88
2017-10-05T02:29:49.123Z,12.87
2017-10-05T02:29:49.721Z,12.97
2017-10-05T02:29:50.322Z,12.84
2017-10-05T02:29:50.921Z,12.99
2017-10-05T02:29:51.521Z,12.95
2017-10-05T02:29:52.122Z,12.85
2017-10-05T02:29:52.725Z,12.89
2017-10-05T02:30:46.199Z,12.99
2017-10-05T02:30:46.776Z,12.99
2017-10-05T02:30:47.374Z,12.99
2017-10-05T02:30:47.976Z,12.99
2017-10-05T02:30:48.574Z,12.93
2017-10-05T02:30:49.174Z,12.95
2017-10-05T02:30:49.772Z,13.06
2017-10-05T02:30:50.374Z,12.89
2017-10-05T02:31:43.852Z,12.87
2017-10-05T02:31:44.426Z,12.89
2017-10-05T02:31:45.027Z,12.99
2017-10-05T02:31:45.626Z,12.95
2017-10-05T02:31:46.226Z,12.99
2017-10-05T02:31:46.826Z,12.89
2017-10-05T02:31:47.425Z,12.96
2017-10-05T02:31:48.025Z,12.96
2017-10-05T02:32:41.502Z,12.97
2017-10-05T02:32:42.077Z,12.95
2017-10-05T02:32:42.677Z,12.99
2017-10-05T02:32:43.277Z,12.99
2017-10-05T02:32:43.876Z,13.02
2017-10-05T02:32:44.478Z,13.00
2017-10-05T02:32:45.076Z,12.96
2017-10-05T02:32:45.676Z,13.00
2017-10-05T02:33:40.180Z,12.99
2017-10-05T02:33:40.751Z,12.95
2017-10-05T02:33:41.352Z,12.96
2017-10-05T02:33:41.953Z,13.03
2017-10-05T02:33:42.550Z,13.00
2017-10-05T02:33:43.151Z,12.96
2017-10-05T02:33:43.754Z,12.99
2017-10-05T02:33:44.351Z,12.88
2017-10-05T02:51:53.212Z,12.67
2017-10-05T02:51:53.774Z,12.75
2017-10-05T02:51:54.372Z,12.67
2017-10-05T02:51:54.974Z,12.75
2017-10-05T02:51:55.573Z,12.67
2017-10-05T02:51:56.172Z,12.67
2017-10-05T02:51:56.772Z,12.66
2017-10-05T02:51:57.372Z,12.69
2017-10-05T02:51:57.975Z,12.69
2017-10-05T02:51:58.574Z,12.69
2017-10-05T02:51:59.175Z,12.74
2017-10-05T02:51:59.771Z,12.69
2017-10-05T02:52:53.313Z,12.69
2017-10-05T02:52:53.884Z,12.70
2017-10-05T02:52:54.483Z,12.69
2017-10-05T02:52:55.088Z,12.74
2017-10-05T02:52:55.682Z,12.67
2017-10-05T02:52:56.281Z,12.69
2017-10-05T02:52:56.882Z,12.67
2017-10-05T02:52:57.484Z,12.67
2017-10-05T02:53:51.985Z,12.67
2017-10-05T02:53:52.558Z,12.70
2017-10-05T02:53:53.159Z,12.67
2017-10-05T02:53:53.760Z,12.67
2017-10-05T02:53:54.358Z,12.69
2017-10-05T02:53:54.959Z,12.67
2017-10-05T02:53:55.559Z,12.69
2017-10-05T02:53:56.159Z,12.69
2017-10-05T02:54:50.660Z,12.70
2017-10-05T02:54:51.235Z,12.69
2017-10-05T02:54:51.835Z,12.70
2017-10-05T02:54:52.437Z,12.64
2017-10-05T02:54:53.036Z,12.67
2017-10-05T02:54:53.634Z,12.67
2017-10-05T02:54:54.235Z,12.67
2017-10-05T02:54:54.836Z,12.70
2017-10-05T02:55:49.337Z,12.69
2017-10-05T02:55:49.912Z,12.69
2017-10-05T02:55:50.510Z,12.71
2017-10-05T02:55:51.110Z,12.74
2017-10-05T02:55:51.710Z,12.67
2017-10-05T02:55:52.310Z,12.74
2017-10-05T02:55:52.910Z,12.64
2017-10-05T02:55:53.510Z,12.69
2017-10-05T02:56:48.020Z,12.66
2017-10-05T02:56:48.587Z,12.67
2017-10-05T02:56:49.186Z,12.64
2017-10-05T02:56:49.786Z,12.67
2017-10-05T02:56:50.388Z,12.67
2017-10-05T02:56:50.987Z,12.64
2017-10-05T02:56:51.586Z,12.70
2017-10-05T02:56:52.186Z,12.67
2017-10-05T02:57:46.689Z,12.63
2017-10-05T02:57:47.264Z,12.64
2017-10-05T02:57:47.864Z,12.63
2017-10-05T02:57:48.463Z,12.67
2017-10-05T02:57:49.063Z,12.71
2017-10-05T02:57:49.663Z,12.67
2017-10-05T02:57:50.262Z,12.69
2017-10-05T02:57:50.862Z,12.70
2017-10-05T02:58:44.341Z,12.69
2017-10-05T02:58:44.915Z,12.62
2017-10-05T02:58:45.515Z,12.64
2017-10-05T02:58:46.114Z,12.67
2017-10-05T02:58:46.718Z,12.64
2017-10-05T02:58:47.316Z,12.62
2017-10-05T02:58:47.916Z,12.69
2017-10-05T02:58:48.519Z,12.70
2017-10-05T02:59:43.017Z,12.69
2017-10-05T02:59:43.591Z,12.63
2017-10-05T02:59:44.190Z,12.64
2017-10-05T02:59:44.795Z,12.70
2017-10-05T02:59:45.390Z,12.69
2017-10-05T02:59:45.991Z,12.64
2017-10-05T02:59:46.590Z,12.67
2017-10-05T02:59:47.190Z,12.67
2017-10-05T03:00:41.692Z,12.69
2017-10-05T03:00:42.266Z,12.64
2017-10-05T03:00:42.866Z,12.67
2017-10-05T03:00:43.466Z,12.64
2017-10-05T03:00:44.065Z,12.67
2017-10-05T03:00:44.666Z,12.69
2017-10-05T03:00:45.264Z,12.69
2017-10-05T03:00:45.866Z,12.70
2017-10-05T03:01:40.368Z,12.71
2017-10-05T03:01:40.942Z,12.74
2017-10-05T03:01:41.549Z,12.71
2017-10-05T03:01:42.142Z,12.69
2017-10-05T03:01:42.741Z,12.77
2017-10-05T03:01:43.342Z,12.67
2017-10-05T03:01:43.942Z,12.63
2017-10-05T03:01:44.543Z,12.66
2017-10-05T03:02:39.044Z,12.75
2017-10-05T03:02:39.619Z,12.75
2017-10-05T03:02:40.218Z,12.69
2017-10-05T03:02:40.818Z,12.77
2017-10-05T03:02:41.417Z,12.77
2017-10-05T03:02:42.017Z,12.70
2017-10-05T03:02:42.617Z,12.77
2017-10-05T03:02:43.219Z,12.67
2017-10-05T03:03:37.720Z,12.75
2017-10-05T03:03:38.293Z,12.75
2017-10-05T03:03:38.895Z,12.74
2017-10-05T03:03:39.494Z,12.74
2017-10-05T03:03:40.094Z,12.67
2017-10-05T03:03:40.693Z,12.69
2017-10-05T03:03:41.293Z,12.71
2017-10-05T03:03:41.894Z,12.78
2017-10-05T03:04:36.398Z,12.71
2017-10-05T03:04:36.970Z,12.79
2017-10-05T03:04:37.569Z,12.77
2017-10-05T03:04:38.169Z,12.82
2017-10-05T03:04:38.769Z,12.74
2017-10-05T03:04:39.369Z,12.78
2017-10-05T03:04:39.969Z,12.75
2017-10-05T03:04:40.569Z,12.75
2017-10-05T03:05:34.051Z,12.75
2017-10-05T03:05:34.623Z,12.77
2017-10-05T03:05:35.222Z,12.79
2017-10-05T03:05:35.822Z,12.74
2017-10-05T03:05:36.423Z,12.74
2017-10-05T03:05:37.022Z,12.71
2017-10-05T03:05:37.622Z,12.71
2017-10-05T03:05:38.223Z,12.75
2017-10-05T03:06:31.698Z,12.66
2017-10-05T03:06:32.277Z,12.70
2017-10-05T03:06:32.874Z,12.77
2017-10-05T03:06:33.473Z,12.71
2017-10-05T03:06:34.073Z,12.74
2017-10-05T03:06:34.676Z,12.77
2017-10-05T03:06:35.277Z,12.74
2017-10-05T03:06:35.874Z,12.77
2017-10-05T03:07:30.377Z,12.74
2017-10-05T03:07:30.950Z,12.78
2017-10-05T03:07:31.548Z,12.70
2017-10-05T03:07:32.148Z,12.77
2017-10-05T03:07:32.749Z,12.79
2017-10-05T03:07:33.350Z,12.70
2017-10-05T03:07:33.949Z,12.71
2017-10-05T03:07:34.548Z,12.67
2017-10-05T03:08:29.054Z,12.79
2017-10-05T03:08:29.627Z,12.79
2017-10-05T03:08:30.228Z,12.79
2017-10-05T03:08:30.828Z,12.77
2017-10-05T03:08:31.429Z,12.79
2017-10-05T03:08:32.028Z,12.77
2017-10-05T03:08:32.627Z,12.78
2017-10-05T03:08:33.227Z,12.78
2017-10-05T03:09:26.703Z,12.78
2017-10-05T03:09:27.279Z,12.71
2017-10-05T03:09:27.876Z,12.71
2017-10-05T03:09:28.476Z,12.77
2017-10-05T03:09:29.077Z,12.74
2017-10-05T03:09:29.675Z,12.77
2017-10-05T03:09:30.277Z,12.82
2017-10-05T03:09:30.876Z,12.81
2017-10-05T03:10:25.381Z,12.70
2017-10-05T03:10:25.955Z,12.77
2017-10-05T03:10:26.554Z,12.84
2017-10-05T03:10:27.154Z,12.79
2017-10-05T03:10:27.754Z,12.85
2017-10-05T03:10:28.354Z,12.85
2017-10-05T03:10:28.954Z,12.88
2017-10-05T03:10:29.553Z,12.84
2017-10-05T03:11:23.031Z,12.85
2017-10-05T03:11:23.605Z,12.77
2017-10-05T03:11:24.205Z,12.87
2017-10-05T03:11:24.804Z,12.82
2017-10-05T03:11:25.410Z,12.88
2017-10-05T03:11:26.005Z,12.84
2017-10-05T03:11:26.605Z,12.89
2017-10-05T03:11:27.204Z,12.88
2017-10-05T03:12:20.684Z,12.84
2017-10-05T03:12:21.262Z,12.79
2017-10-05T03:12:21.856Z,12.93
2017-10-05T03:12:22.456Z,12.89
2017-10-05T03:12:23.059Z,12.85
2017-10-05T03:12:23.657Z,12.79
2017-10-05T03:12:24.256Z,12.84
2017-10-05T03:12:24.857Z,12.87
2017-10-05T03:13:19.359Z,12.93
2017-10-05T03:13:19.931Z,12.82
2017-10-05T03:13:20.531Z,12.89
2017-10-05T03:13:21.130Z,12.85
2017-10-05T03:13:21.730Z,12.84
2017-10-05T03:13:22.331Z,12.93
2017-10-05T03:13:22.930Z,12.95
2017-10-05T03:13:23.529Z,12.88
2017-10-05T03:14:17.009Z,12.79
2017-10-05T03:14:17.584Z,12.87
2017-10-05T03:14:18.184Z,12.78
2017-10-05T03:14:18.784Z,12.93
2017-10-05T03:14:19.384Z,12.79
2017-10-05T03:14:19.992Z,12.85
2017-10-05T03:14:20.584Z,12.85
2017-10-05T03:14:21.181Z,12.84
2017-10-05T03:15:14.661Z,12.87
2017-10-05T03:15:15.235Z,12.89
2017-10-05T03:15:15.835Z,12.84
2017-10-05T03:15:16.434Z,12.87
2017-10-05T03:15:17.036Z,12.84
2017-10-05T03:15:17.636Z,12.82
2017-10-05T03:15:18.234Z,12.85
2017-10-05T03:15:18.846Z,12.87
2017-10-05T03:16:12.313Z,12.87
2017-10-05T03:16:12.888Z,12.85
2017-10-05T03:16:13.487Z,12.89
2017-10-05T03:16:14.087Z,12.85
2017-10-05T03:16:14.687Z,12.84
2017-10-05T03:16:15.287Z,12.82
2017-10-05T03:16:15.886Z,12.84
2017-10-05T03:16:16.486Z,12.97
2017-10-05T03:17:09.963Z,12.97
2017-10-05T03:17:10.538Z,12.87
2017-10-05T03:17:11.139Z,12.85
2017-10-05T03:17:11.738Z,12.87
2017-10-05T03:17:12.339Z,12.85
2017-10-05T03:17:12.937Z,12.87
2017-10-05T03:17:13.538Z,12.88
2017-10-05T03:17:14.139Z,12.87
2017-10-05T03:18:08.642Z,12.87
2017-10-05T03:18:09.213Z,12.89
2017-10-05T03:18:09.814Z,12.85
2017-10-05T03:18:10.413Z,12.87
2017-10-05T03:18:11.012Z,12.97
2017-10-05T03:18:11.612Z,12.85
2017-10-05T03:18:12.213Z,12.84
2017-10-05T03:18:12.812Z,12.85
2017-10-05T03:19:06.291Z,12.93
2017-10-05T03:19:06.867Z,12.82
2017-10-05T03:19:07.465Z,12.82
2017-10-05T03:19:08.066Z,12.87
2017-10-05T03:19:08.665Z,12.88
2017-10-05T03:19:09.266Z,12.87
2017-10-05T03:19:09.866Z,12.89
2017-10-05T03:19:10.466Z,12.87
2017-10-05T03:20:04.969Z,12.87
2017-10-05T03:20:05.541Z,12.87
2017-10-05T03:20:06.140Z,12.89
2017-10-05T03:20:06.740Z,12.93
2017-10-05T03:20:07.340Z,12.89
2017-10-05T03:20:07.941Z,12.97
2017-10-05T03:20:08.539Z,12.85
2017-10-05T03:20:09.140Z,12.87
2017-10-05T03:21:03.644Z,12.96
2017-10-05T03:21:04.220Z,13.00
2017-10-05T03:21:04.819Z,12.88
2017-10-05T03:21:05.421Z,12.84
2017-10-05T03:21:06.020Z,13.02
2017-10-05T03:21:06.619Z,12.99
2017-10-05T03:21:07.217Z,12.88
2017-10-05T03:21:07.819Z,12.97
2017-10-05T03:22:02.329Z,13.03
2017-10-05T03:22:02.892Z,12.97
2017-10-05T03:22:03.491Z,12.93
2017-10-05T03:22:04.097Z,12.99
2017-10-05T03:22:04.692Z,13.00
2017-10-05T03:22:05.292Z,12.96
2017-10-05T03:22:05.892Z,12.96
2017-10-05T03:22:06.492Z,12.95
2017-10-05T03:23:00.995Z,13.02
2017-10-05T03:23:01.568Z,12.96
2017-10-05T03:23:02.168Z,12.96
2017-10-05T03:23:02.767Z,13.06
2017-10-05T03:23:03.368Z,12.97
2017-10-05T03:23:03.969Z,12.97
2017-10-05T03:23:04.566Z,12.96
2017-10-05T03:23:05.166Z,12.97
2017-10-05T03:23:58.650Z,12.99
2017-10-05T03:23:59.219Z,12.93
2017-10-05T03:23:59.819Z,13.07
2017-10-05T03:24:00.419Z,13.03
2017-10-05T03:24:01.020Z,12.97
2017-10-05T03:24:01.618Z,13.04
2017-10-05T03:24:02.222Z,13.02
2017-10-05T03:24:02.819Z,13.00
2017-10-05T03:24:57.322Z,13.03
2017-10-05T03:24:57.895Z,12.97
2017-10-05T03:24:58.495Z,13.03
2017-10-05T03:24:59.094Z,13.04
2017-10-05T03:24:59.694Z,13.04
2017-10-05T03:25:00.295Z,13.06
2017-10-05T03:25:00.896Z,13.03
2017-10-05T03:25:01.494Z,13.03
2017-10-05T03:25:54.973Z,13.03
2017-10-05T03:25:55.548Z,13.00
2017-10-05T03:25:56.147Z,13.04
2017-10-05T03:25:56.747Z,13.06
2017-10-05T03:25:57.348Z,13.06
2017-10-05T03:25:57.948Z,13.04
2017-10-05T03:25:58.547Z,12.99
2017-10-05T03:25:59.146Z,13.02
2017-10-05T03:26:52.623Z,13.00
2017-10-05T03:26:53.199Z,12.97
2017-10-05T03:26:53.799Z,13.04
2017-10-05T03:26:54.398Z,13.03
2017-10-05T03:26:54.999Z,13.03
2017-10-05T03:26:55.605Z,13.06
2017-10-05T03:26:56.199Z,13.09
2017-10-05T03:26:56.799Z,13.06
2017-10-05T03:27:51.302Z,13.07
2017-10-05T03:27:51.873Z,13.11
2017-10-05T03:27:52.473Z,13.03